Time;durP1;ratioP1;P1;durP2;ratioP2;P2;SDS_P1;SDS_P2;PMS_P1;PMS_P2;Temp;Humidity;BMP_temperature;BMP_pressure;BME280_temperature;BME280_humidity;BME280_pressure;Samples;Min_cycle;Max_cycle;Signal;HPM_P1;HPM_P2
2023/03/11 00:00:24;;;;;;;19.00;3.33;;;;;;;;;;7351451;19;20010;-80
2023/03/11 00:02:51;;;;;;;15.43;3.60;;;;;;;;;;7359530;19;20373;-79
2023/03/11 00:05:18;;;;;;;12.73;3.45;;;;;;;;;;7360259;19;20029;-79
2023/03/11 00:07:43;;;;;;;17.85;3.22;;;;;;;;;;7371941;19;20023;-79
2023/03/11 00:10:13;;;;;;;10.05;3.17;;;;;;;;;;7366430;19;20021;-79
2023/03/11 00:12:38;;;;;;;13.13;3.50;;;;;;;;;;7365629;19;20011;-79
2023/03/11 00:15:03;;;;;;;13.32;3.25;;;;;;;;;;7355043;19;20038;-80
2023/03/11 00:17:28;;;;;;;18.35;3.28;;;;;;;;;;7362967;19;20040;-80
2023/03/11 00:19:54;;;;;;;10.77;3.03;;;;;;;;;;7362215;19;20049;-79
2023/03/11 00:22:19;;;;;;;14.38;3.20;;;;;;;;;;7367261;19;20923;-79
2023/03/11 00:24:44;;;;;;;24.77;4.15;;;;;;;;;;7369255;19;20708;-82
2023/03/11 00:27:09;;;;;;;11.80;3.03;;;;;;;;;;7365671;19;20263;-80
2023/03/11 00:29:34;;;;;;;14.40;3.45;;;;;;;;;;7364567;19;20426;-80
2023/03/11 00:31:59;;;;;;;18.20;3.70;;;;;;;;;;7361979;19;20267;-81
2023/03/11 00:34:25;;;;;;;13.57;2.90;;;;;;;;;;7370221;19;20487;-80
2023/03/11 00:36:50;;;;;;;13.27;3.28;;;;;;;;;;7365561;19;20002;-79
2023/03/11 00:39:15;;;;;;;14.50;3.25;;;;;;;;;;7366492;19;20010;-79
2023/03/11 00:41:40;;;;;;;16.65;3.30;;;;;;;;;;7373810;19;20026;-79
2023/03/11 00:44:05;;;;;;;13.02;3.22;;;;;;;;;;7358993;19;20408;-80
2023/03/11 00:46:31;;;;;;;11.57;3.00;;;;;;;;;;7363918;19;22157;-79
2023/03/11 00:48:56;;;;;;;14.70;3.15;;;;;;;;;;7361775;19;20021;-80
2023/03/11 00:51:21;;;;;;;10.85;3.03;;;;;;;;;;7361886;19;20050;-79
2023/03/11 00:53:46;;;;;;;15.32;4.03;;;;;;;;;;7369777;19;20006;-79
2023/03/11 00:56:13;;;;;;;11.68;3.10;;;;;;;;;;7363715;19;20493;-79
2023/03/11 00:58:39;;;;;;;23.00;3.97;;;;;;;;;;7371813;19;20014;-79
2023/03/11 01:01:08;;;;;;;13.30;3.00;;;;;;;;;;7359801;19;20406;-80
2023/03/11 01:03:35;;;;;;;14.40;3.60;;;;;;;;;;7337663;19;20146;-80
2023/03/11 01:06:00;;;;;;;14.57;3.72;;;;;;;;;;7349606;19;20014;-81
2023/03/11 01:08:26;;;;;;;10.27;2.85;;;;;;;;;;7360203;19;20017;-79
2023/03/11 01:10:51;;;;;;;11.77;3.00;;;;;;;;;;7353173;19;20329;-78
2023/03/11 01:13:16;;;;;;;13.88;3.47;;;;;;;;;;7355455;19;20003;-79
2023/03/11 01:15:42;;;;;;;14.43;3.90;;;;;;;;;;7354007;19;20011;-80
2023/03/11 01:18:07;;;;;;;12.50;3.72;;;;;;;;;;7362646;19;20132;-80
2023/03/11 01:20:32;;;;;;;13.38;4.22;;;;;;;;;;7348769;19;20014;-80
2023/03/11 01:22:57;;;;;;;16.80;3.75;;;;;;;;;;7367216;19;20017;-79
2023/03/11 01:25:23;;;;;;;20.80;4.00;;;;;;;;;;7363755;19;20071;-80
2023/03/11 01:27:48;;;;;;;21.48;4.25;;;;;;;;;;7365847;19;20034;-81
2023/03/11 01:30:15;;;;;;;14.15;3.88;;;;;;;;;;7348523;19;20014;-80
2023/03/11 01:32:41;;;;;;;16.42;3.85;;;;;;;;;;7370920;19;20066;-79
2023/03/11 01:35:06;;;;;;;17.05;4.53;;;;;;;;;;7356321;19;20211;-79
2023/03/11 01:37:31;;;;;;;12.98;4.15;;;;;;;;;;7366437;19;20006;-79
2023/03/11 01:39:56;;;;;;;19.23;5.20;;;;;;;;;;7369195;19;20011;-80
2023/03/11 01:42:22;;;;;;;13.60;4.60;;;;;;;;;;7360610;19;20021;-80
2023/03/11 01:44:47;;;;;;;16.30;4.40;;;;;;;;;;7367100;19;20011;-79
2023/03/11 01:47:12;;;;;;;22.52;5.15;;;;;;;;;;7365152;19;20517;-79
2023/03/11 01:49:40;;;;;;;15.65;5.03;;;;;;;;;;7356911;19;20014;-80
2023/03/11 01:52:06;;;;;;;14.85;5.03;;;;;;;;;;7354794;19;20017;-79
2023/03/11 01:54:38;;;;;;;15.57;5.22;;;;;;;;;;7353090;19;20011;-80
2023/03/11 01:57:08;;;;;;;13.52;4.78;;;;;;;;;;7351867;19;20052;-81
2023/03/11 01:59:36;;;;;;;14.05;5.07;;;;;;;;;;7353159;19;20014;-79
2023/03/11 02:02:01;;;;;;;19.67;5.68;;;;;;;;;;7361823;19;20007;-80
2023/03/11 02:04:28;;;;;;;18.75;5.82;;;;;;;;;;7289184;19;20519;-81
2023/03/11 02:06:54;;;;;;;15.52;5.45;;;;;;;;;;7191438;19;20716;-79
2023/03/11 02:09:21;;;;;;;19.60;6.10;;;;;;;;;;7182309;19;20011;-80
2023/03/11 02:11:46;;;;;;;20.50;6.40;;;;;;;;;;7196432;19;20010;-80
2023/03/11 02:14:11;;;;;;;23.15;6.07;;;;;;;;;;7176798;19;20010;-81
2023/03/11 02:16:36;;;;;;;16.67;6.10;;;;;;;;;;7192568;19;21639;-80
2023/03/11 02:19:09;;;;;;;17.98;5.70;;;;;;;;;;7187744;19;22256;-80
2023/03/11 02:21:35;;;;;;;20.50;6.32;;;;;;;;;;7206623;19;20059;-82
2023/03/11 02:24:05;;;;;;;27.05;7.35;;;;;;;;;;7198668;19;20440;-82
2023/03/11 02:26:36;;;;;;;22.67;6.70;;;;;;;;;;7193940;19;20066;-79
2023/03/11 02:29:03;;;;;;;18.98;7.57;;;;;;;;;;7194177;19;20354;-81
2023/03/11 02:31:28;;;;;;;20.10;6.85;;;;;;;;;;7205994;19;20011;-81
2023/03/11 02:33:55;;;;;;;25.58;7.35;;;;;;;;;;7206119;19;20269;-82
2023/03/11 02:36:35;;;;;;;20.95;7.10;;;;;;;;;;7199859;19;20353;-80
2023/03/11 02:39:00;;;;;;;17.80;6.43;;;;;;;;;;7203698;19;20006;-80
2023/03/11 02:41:26;;;;;;;18.83;7.18;;;;;;;;;;7197092;19;20848;-81
2023/03/11 02:43:52;;;;;;;16.15;6.63;;;;;;;;;;7201942;19;20035;-81
2023/03/11 02:46:18;;;;;;;16.38;5.90;;;;;;;;;;7203526;19;20917;-81
2023/03/11 02:48:43;;;;;;;17.48;5.88;;;;;;;;;;7207032;19;20022;-81
2023/03/11 02:51:08;;;;;;;19.85;6.55;;;;;;;;;;7199132;19;20010;-80
2023/03/11 02:53:36;;;;;;;17.83;6.00;;;;;;;;;;7211476;19;20517;-81
2023/03/11 02:56:01;;;;;;;24.15;6.90;;;;;;;;;;7206861;19;20014;-80
2023/03/11 02:58:26;;;;;;;18.42;6.10;;;;;;;;;;7215102;19;21421;-79
2023/03/11 03:00:51;;;;;;;22.77;7.60;;;;;;;;;;7200405;19;21062;-80
2023/03/11 03:03:16;;;;;;;22.52;8.25;;;;;;;;;;7203932;19;22184;-79
2023/03/11 03:05:42;;;;;;;19.52;7.18;;;;;;;;;;7334547;19;20010;-78
2023/03/11 03:08:07;;;;;;;15.25;6.68;;;;;;;;;;7370440;19;20263;-78
2023/03/11 03:10:32;;;;;;;20.77;8.07;;;;;;;;;;7353503;19;20014;-79
2023/03/11 03:12:58;;;;;;;16.70;7.28;;;;;;;;;;7356525;19;20014;-80
2023/03/11 03:15:23;;;;;;;18.40;7.70;;;;;;;;;;7354726;19;20044;-79
2023/03/11 03:17:50;;;;;;;18.25;7.55;;;;;;;;;;7367658;19;20011;-78
2023/03/11 03:20:15;;;;;;;23.42;8.77;;;;;;;;;;7348725;19;20007;-79
2023/03/11 03:22:41;;;;;;;17.98;7.85;;;;;;;;;;7371487;19;20014;-80
2023/03/11 03:25:07;;;;;;;22.15;8.55;;;;;;;;;;7368848;19;20011;-78
2023/03/11 03:27:32;;;;;;;21.33;8.05;;;;;;;;;;7359134;19;20648;-79
2023/03/11 03:29:57;;;;;;;23.17;10.05;;;;;;;;;;7361797;19;20173;-79
2023/03/11 03:32:22;;;;;;;23.23;9.65;;;;;;;;;;7364128;19;20021;-79
2023/03/11 03:34:48;;;;;;;24.24;8.64;;;;;;;;;;7352805;19;20139;-79
2023/03/11 03:37:13;;;;;;;24.92;9.00;;;;;;;;;;7365148;19;20364;-78
2023/03/11 03:39:38;;;;;;;17.60;8.95;;;;;;;;;;7369867;19;20376;-79
2023/03/11 03:42:03;;;;;;;24.27;8.23;;;;;;;;;;7370404;19;20323;-79
2023/03/11 03:44:29;;;;;;;19.02;8.00;;;;;;;;;;7352805;19;20611;-79
2023/03/11 03:46:54;;;;;;;24.63;8.77;;;;;;;;;;7369440;19;20077;-80
2023/03/11 03:49:19;;;;;;;21.45;8.05;;;;;;;;;;7354935;19;20760;-79
2023/03/11 03:51:45;;;;;;;27.33;10.38;;;;;;;;;;7369258;19;20043;-79
2023/03/11 03:54:10;;;;;;;17.70;8.93;;;;;;;;;;7364159;19;20571;-80
2023/03/11 03:56:35;;;;;;;24.90;9.88;;;;;;;;;;7369111;19;20011;-78
2023/03/11 03:59:00;;;;;;;21.90;9.88;;;;;;;;;;7367644;19;20354;-80
2023/03/11 04:01:25;;;;;;;25.92;10.30;;;;;;;;;;7354806;19;20419;-80
2023/03/11 04:03:50;;;;;;;29.33;11.75;;;;;;;;;;7361087;19;20644;-80
2023/03/11 04:06:19;;;;;;;32.92;13.57;;;;;;;;;;7363261;19;20018;-79
2023/03/11 04:08:45;;;;;;;31.42;13.63;;;;;;;;;;7369898;19;20074;-81
2023/03/11 04:11:10;;;;;;;36.65;15.18;;;;;;;;;;7366173;19;20061;-83
2023/03/11 04:13:36;;;;;;;34.80;13.88;;;;;;;;;;7365288;19;20535;-78
2023/03/11 04:16:05;;;;;;;25.75;12.93;;;;;;;;;;7360925;19;20049;-79
2023/03/11 04:18:30;;;;;;;33.63;13.55;;;;;;;;;;7358774;19;20229;-80
2023/03/11 04:20:55;;;;;;;29.27;12.60;;;;;;;;;;7372114;19;20090;-79
2023/03/11 04:23:20;;;;;;;27.92;12.10;;;;;;;;;;7373230;19;20396;-80
2023/03/11 04:25:46;;;;;;;33.03;13.38;;;;;;;;;;7373276;19;20011;-78
2023/03/11 04:28:11;;;;;;;27.65;11.93;;;;;;;;;;7366754;19;20264;-83
2023/03/11 04:30:36;;;;;;;31.00;11.77;;;;;;;;;;7369427;19;20040;-79
2023/03/11 04:33:02;;;;;;;28.27;13.30;;;;;;;;;;7359791;19;20018;-79
2023/03/11 04:35:27;;;;;;;26.75;12.23;;;;;;;;;;7357148;19;20030;-80
2023/03/11 04:37:52;;;;;;;27.80;12.90;;;;;;;;;;7366455;19;20022;-78
2023/03/11 04:40:17;;;;;;;29.52;12.50;;;;;;;;;;7368025;19;20019;-79
2023/03/11 04:42:42;;;;;;;35.28;12.43;;;;;;;;;;7369629;19;20014;-80
2023/03/11 04:45:09;;;;;;;28.50;12.46;;;;;;;;;;7367729;19;20752;-79
2023/03/11 04:47:34;;;;;;;29.02;13.18;;;;;;;;;;7369379;19;20010;-78
2023/03/11 04:50:00;;;;;;;27.48;12.20;;;;;;;;;;7366914;19;20048;-78
2023/03/11 04:52:25;;;;;;;40.95;13.80;;;;;;;;;;7368867;19;20374;-78
2023/03/11 04:54:50;;;;;;;31.60;12.35;;;;;;;;;;7367136;19;20017;-80
2023/03/11 04:57:15;;;;;;;35.78;12.90;;;;;;;;;;7367714;19;20030;-79
2023/03/11 04:59:40;;;;;;;22.60;10.48;;;;;;;;;;7368437;19;20584;-79
2023/03/11 05:02:06;;;;;;;26.20;9.35;;;;;;;;;;7370456;19;20397;-79
2023/03/11 05:04:31;;;;;;;23.42;8.95;;;;;;;;;;7359484;19;20089;-79
2023/03/11 05:06:56;;;;;;;23.48;8.88;;;;;;;;;;7371364;19;20013;-79
2023/03/11 05:09:21;;;;;;;16.98;7.68;;;;;;;;;;7368944;19;20031;-79
2023/03/11 05:11:46;;;;;;;21.98;8.00;;;;;;;;;;7362777;19;20010;-79
2023/03/11 05:14:12;;;;;;;17.88;7.43;;;;;;;;;;7364473;19;20026;-80
2023/03/11 05:16:37;;;;;;;16.13;6.88;;;;;;;;;;7363358;19;20018;-78
2023/03/11 05:19:29;;;;;;;18.17;7.57;;;;;;;;;;7364644;19;20003;-79
2023/03/11 05:21:47;;;;;;;16.38;6.78;;;;;;;;;;7370216;19;20284;-80
2023/03/11 05:24:12;;;;;;;18.48;9.15;;;;;;;;;;7364396;19;20023;-79
2023/03/11 05:26:37;;;;;;;21.50;7.80;;;;;;;;;;7358000;19;20279;-79
2023/03/11 05:29:03;;;;;;;25.15;9.52;;;;;;;;;;7365247;19;20347;-79
2023/03/11 05:31:28;;;;;;;21.15;9.68;;;;;;;;;;7340447;19;20300;-78
2023/03/11 05:33:53;;;;;;;19.13;9.05;;;;;;;;;;7358737;19;20031;-78
2023/03/11 05:36:18;;;;;;;25.92;11.18;;;;;;;;;;7361054;19;20372;-80
2023/03/11 05:38:43;;;;;;;29.88;10.65;;;;;;;;;;7366031;19;20262;-78
2023/03/11 05:41:08;;;;;;;25.02;10.85;;;;;;;;;;7366902;19;20283;-79
2023/03/11 05:43:34;;;;;;;27.20;9.88;;;;;;;;;;7358655;19;20001;-79
2023/03/11 05:45:59;;;;;;;21.20;9.02;;;;;;;;;;7362640;19;20796;-80
2023/03/11 05:48:24;;;;;;;21.38;10.48;;;;;;;;;;7365097;19;20017;-79
2023/03/11 05:50:49;;;;;;;22.83;10.07;;;;;;;;;;7363200;19;20021;-79
2023/03/11 05:53:14;;;;;;;23.52;10.10;;;;;;;;;;7357262;19;20070;-78
2023/03/11 05:55:39;;;;;;;29.62;9.72;;;;;;;;;;7362390;19;20827;-79
2023/03/11 05:58:05;;;;;;;22.00;10.38;;;;;;;;;;7367308;19;20015;-77
2023/03/11 06:00:30;;;;;;;23.75;9.88;;;;;;;;;;7356686;19;20275;-80
2023/03/11 06:02:55;;;;;;;27.70;9.98;;;;;;;;;;7364426;19;20014;-79
2023/03/11 06:05:21;;;;;;;18.73;9.48;;;;;;;;;;7358801;19;20022;-80
2023/03/11 06:07:46;;;;;;;21.80;8.38;;;;;;;;;;7369101;19;20865;-79
2023/03/11 06:10:11;;;;;;;27.50;8.82;;;;;;;;;;7361055;19;20006;-79
2023/03/11 06:12:37;;;;;;;20.42;8.88;;;;;;;;;;7363509;19;20018;-79
2023/03/11 06:15:03;;;;;;;21.00;9.13;;;;;;;;;;7361366;19;20343;-79
2023/03/11 06:17:28;;;;;;;22.35;8.73;;;;;;;;;;7361721;19;20342;-79
2023/03/11 06:19:53;;;;;;;21.50;9.38;;;;;;;;;;7362457;19;20043;-79
2023/03/11 06:22:18;;;;;;;27.52;8.93;;;;;;;;;;7361153;19;20031;-80
2023/03/11 06:24:43;;;;;;;21.70;8.43;;;;;;;;;;7365879;19;20007;-79
2023/03/11 06:27:10;;;;;;;17.15;8.93;;;;;;;;;;7364333;19;20035;-79
2023/03/11 06:29:35;;;;;;;24.77;8.70;;;;;;;;;;7359478;19;20018;-80
2023/03/11 06:32:00;;;;;;;20.55;9.20;;;;;;;;;;7355650;19;20017;-81
2023/03/11 06:34:25;;;;;;;18.77;9.32;;;;;;;;;;7355272;19;20598;-80
2023/03/11 06:36:50;;;;;;;24.33;9.75;;;;;;;;;;7364001;19;20307;-80
2023/03/11 06:39:15;;;;;;;22.77;8.95;;;;;;;;;;7367640;19;20018;-79
2023/03/11 06:41:41;;;;;;;20.27;9.13;;;;;;;;;;7361174;19;20527;-79
2023/03/11 06:44:06;;;;;;;21.95;9.02;;;;;;;;;;7338672;19;20014;-80
2023/03/11 06:46:31;;;;;;;26.27;8.90;;;;;;;;;;7350511;19;20893;-78
2023/03/11 06:48:56;;;;;;;24.88;9.70;;;;;;;;;;7355730;19;20039;-78
2023/03/11 06:51:21;;;;;;;22.20;9.45;;;;;;;;;;7352482;19;20635;-78
2023/03/11 06:53:48;;;;;;;21.83;8.73;;;;;;;;;;7331909;19;20098;-78
2023/03/11 06:56:13;;;;;;;23.98;9.43;;;;;;;;;;7325474;19;20551;-78
2023/03/11 06:58:39;;;;;;;20.20;9.25;;;;;;;;;;7362266;19;20911;-77
2023/03/11 07:01:14;;;;;;;19.83;8.95;;;;;;;;;;7356078;19;20007;-78
2023/03/11 07:03:40;;;;;;;23.60;9.70;;;;;;;;;;7350022;19;20015;-79
2023/03/11 07:06:05;;;;;;;19.77;9.13;;;;;;;;;;7355856;19;20259;-77
2023/03/11 07:08:30;;;;;;;18.80;8.65;;;;;;;;;;7360367;19;20013;-78
2023/03/11 07:11:16;;;;;;;22.63;8.40;;;;;;;;;;7365473;19;20116;-80
2023/03/11 07:13:41;;;;;;;25.90;9.90;;;;;;;;;;7363211;19;20011;-80
2023/03/11 07:16:08;;;;;;;21.60;9.63;;;;;;;;;;7355018;19;20026;-78
2023/03/11 07:18:34;;;;;;;19.88;9.00;;;;;;;;;;7356356;19;20025;-79
2023/03/11 07:21:00;;;;;;;25.73;11.05;;;;;;;;;;7357460;19;20014;-78
2023/03/11 07:23:25;;;;;;;27.00;10.00;;;;;;;;;;7358310;19;20028;-80
2023/03/11 07:25:51;;;;;;;26.17;9.90;;;;;;;;;;7356265;19;20006;-77
2023/03/11 07:28:16;;;;;;;26.85;10.25;;;;;;;;;;7363720;19;20014;-78
2023/03/11 07:30:43;;;;;;;26.02;9.95;;;;;;;;;;7354771;19;20628;-80
2023/03/11 07:33:08;;;;;;;18.70;9.18;;;;;;;;;;7351426;19;20018;-80
2023/03/11 07:35:34;;;;;;;21.08;9.75;;;;;;;;;;7351653;19;20349;-80
2023/03/11 07:37:59;;;;;;;27.45;11.90;;;;;;;;;;7355531;19;20407;-79
2023/03/11 07:40:24;;;;;;;22.60;10.15;;;;;;;;;;7350286;19;20341;-80
2023/03/11 07:42:49;;;;;;;25.27;10.25;;;;;;;;;;7355543;19;20014;-81
2023/03/11 07:45:15;;;;;;;29.80;10.25;;;;;;;;;;7355776;19;20297;-80
2023/03/11 07:47:40;;;;;;;23.77;9.95;;;;;;;;;;7364309;19;20621;-81
2023/03/11 07:50:05;;;;;;;20.77;10.00;;;;;;;;;;7370715;19;20017;-80
2023/03/11 07:52:30;;;;;;;20.63;9.93;;;;;;;;;;7358137;19;20270;-82
2023/03/11 07:54:56;;;;;;;20.75;8.98;;;;;;;;;;7371729;19;20440;-82
2023/03/11 07:57:21;;;;;;;19.73;9.30;;;;;;;;;;7372948;19;20214;-83
2023/03/11 07:59:46;;;;;;;18.77;9.48;;;;;;;;;;7327037;19;20445;-81
2023/03/11 08:02:11;;;;;;;21.38;9.35;;;;;;;;;;7368421;19;20007;-79
2023/03/11 08:04:36;;;;;;;17.95;10.05;;;;;;;;;;7360105;19;20276;-80
2023/03/11 08:07:01;;;;;;;25.02;9.20;;;;;;;;;;7371927;19;20267;-80
2023/03/11 08:09:27;;;;;;;20.33;9.18;;;;;;;;;;7361961;19;20046;-80
2023/03/11 08:11:52;;;;;;;21.50;10.65;;;;;;;;;;7368796;19;20074;-80
2023/03/11 08:14:17;;;;;;;22.23;8.88;;;;;;;;;;7369008;19;20760;-81
2023/03/11 08:16:42;;;;;;;18.10;9.05;;;;;;;;;;7371945;19;20041;-80
2023/03/11 08:19:10;;;;;;;23.13;9.75;;;;;;;;;;7338492;19;20118;-80
2023/03/11 08:21:35;;;;;;;17.90;9.73;;;;;;;;;;7325626;19;20010;-80
2023/03/11 08:24:00;;;;;;;27.38;10.13;;;;;;;;;;7367237;19;20015;-80
2023/03/11 08:26:26;;;;;;;21.25;10.30;;;;;;;;;;7362096;19;20007;-80
2023/03/11 08:28:51;;;;;;;25.30;10.20;;;;;;;;;;7366093;19;20006;-80
2023/03/11 08:31:18;;;;;;;18.75;9.15;;;;;;;;;;7360864;19;20014;-80
2023/03/11 08:33:44;;;;;;;16.90;8.60;;;;;;;;;;7341163;19;21227;-81
2023/03/11 08:36:09;;;;;;;19.58;8.73;;;;;;;;;;7343379;19;20082;-80
2023/03/11 08:38:34;;;;;;;23.67;9.43;;;;;;;;;;7365659;19;20085;-80
2023/03/11 08:40:59;;;;;;;21.83;8.48;;;;;;;;;;7367526;19;20045;-80
2023/03/11 08:43:25;;;;;;;17.23;8.02;;;;;;;;;;7349418;19;20073;-80
2023/03/11 08:45:50;;;;;;;18.38;8.73;;;;;;;;;;7359683;19;20002;-80
2023/03/11 08:48:15;;;;;;;16.80;7.15;;;;;;;;;;7367167;19;20007;-80
2023/03/11 08:50:41;;;;;;;23.60;8.35;;;;;;;;;;7356699;19;20296;-80
2023/03/11 08:53:07;;;;;;;20.42;7.68;;;;;;;;;;7364520;19;20039;-80
2023/03/11 08:55:32;;;;;;;18.42;7.78;;;;;;;;;;7360655;19;20026;-80
2023/03/11 08:57:58;;;;;;;19.83;8.43;;;;;;;;;;7348779;19;20744;-80
2023/03/11 09:00:23;;;;;;;17.67;8.05;;;;;;;;;;7344871;19;20326;-80
2023/03/11 09:02:48;;;;;;;14.98;5.45;;;;;;;;;;7351142;19;20021;-80
2023/03/11 09:05:13;;;;;;;15.38;5.85;;;;;;;;;;7352629;19;20018;-80
2023/03/11 09:07:38;;;;;;;15.80;6.88;;;;;;;;;;7361810;19;20002;-81
2023/03/11 09:10:04;;;;;;;12.88;5.07;;;;;;;;;;7355216;19;20028;-80
2023/03/11 09:12:29;;;;;;;18.45;5.40;;;;;;;;;;7352221;19;20658;-80
2023/03/11 09:14:55;;;;;;;10.88;5.93;;;;;;;;;;7355245;19;20044;-80
2023/03/11 09:17:20;;;;;;;11.00;3.85;;;;;;;;;;7364424;19;20450;-80
2023/03/11 09:19:45;;;;;;;10.98;3.30;;;;;;;;;;7359470;19;21397;-80
2023/03/11 09:22:10;;;;;;;8.48;2.75;;;;;;;;;;7362304;19;20026;-81
2023/03/11 09:24:36;;;;;;;11.38;2.72;;;;;;;;;;7360779;19;20011;-80
2023/03/11 09:27:01;;;;;;;11.07;3.30;;;;;;;;;;7361459;19;20002;-80
2023/03/11 09:29:27;;;;;;;10.85;2.38;;;;;;;;;;7362374;19;20097;-80
2023/03/11 09:31:52;;;;;;;10.88;2.35;;;;;;;;;;7360172;19;20026;-80
2023/03/11 09:34:17;;;;;;;10.20;2.47;;;;;;;;;;7359699;19;20036;-80
2023/03/11 09:36:43;;;;;;;8.75;2.50;;;;;;;;;;7364265;19;20370;-80
2023/03/11 09:39:08;;;;;;;12.45;2.50;;;;;;;;;;7364585;19;20021;-80
2023/03/11 09:41:54;;;;;;;8.07;2.25;;;;;;;;;;7351108;19;20018;-80
2023/03/11 09:44:27;;;;;;;7.55;2.67;;;;;;;;;;7364515;19;20007;-80
2023/03/11 09:47:10;;;;;;;9.15;2.58;;;;;;;;;;7364909;19;20010;-80
2023/03/11 09:49:41;;;;;;;8.38;3.03;;;;;;;;;;7358049;19;20106;-80
2023/03/11 09:52:11;;;;;;;7.75;2.05;;;;;;;;;;7362592;19;20020;-80
2023/03/11 09:54:38;;;;;;;8.50;2.00;;;;;;;;;;7358004;19;20010;-81
2023/03/11 09:57:05;;;;;;;8.15;2.03;;;;;;;;;;7362848;19;20095;-81
2023/03/11 09:59:31;;;;;;;12.20;3.22;;;;;;;;;;7318825;19;20102;-80
2023/03/11 10:01:57;;;;;;;8.70;1.95;;;;;;;;;;7353637;19;20006;-80
2023/03/11 10:04:25;;;;;;;10.13;2.00;;;;;;;;;;7355122;19;20748;-80
2023/03/11 10:06:51;;;;;;;8.23;1.95;;;;;;;;;;7344033;19;20010;-80
2023/03/11 10:09:26;;;;;;;8.98;2.10;;;;;;;;;;7360884;19;20007;-79
2023/03/11 10:11:59;;;;;;;10.35;2.22;;;;;;;;;;7363479;19;20118;-80
2023/03/11 10:14:24;;;;;;;15.75;4.10;;;;;;;;;;7362508;19;20010;-80
2023/03/11 10:16:56;;;;;;;9.65;1.98;;;;;;;;;;7362845;19;20040;-80
2023/03/11 10:19:38;;;;;;;8.68;1.90;;;;;;;;;;7352620;19;20029;-80
2023/03/11 10:22:17;;;;;;;8.95;2.00;;;;;;;;;;7358669;19;20045;-81
2023/03/11 10:24:49;;;;;;;7.38;1.92;;;;;;;;;;7347645;19;20011;-80
2023/03/11 10:27:15;;;;;;;7.43;1.90;;;;;;;;;;7361523;19;20464;-80
2023/03/11 10:29:49;;;;;;;8.98;1.88;;;;;;;;;;7342390;19;20630;-80
2023/03/11 10:32:34;;;;;;;11.30;2.20;;;;;;;;;;7324979;19;20039;-80
2023/03/11 10:35:09;;;;;;;13.38;2.00;;;;;;;;;;7353943;19;20529;-80
2023/03/11 10:37:37;;;;;;;8.95;1.80;;;;;;;;;;7348057;19;20102;-80
2023/03/11 10:40:35;;;;;;;6.53;1.60;;;;;;;;;;7352199;19;20098;-80
2023/03/11 10:43:09;;;;;;;10.00;2.00;;;;;;;;;;7337410;19;20227;-81
2023/03/11 10:45:34;;;;;;;;;;;;;;;;;;7339790;19;20723;-80
2023/03/11 10:47:59;;;;;;;8.13;1.92;;;;;;;;;;7352929;19;19921;-80
2023/03/11 10:50:25;;;;;;;12.73;2.20;;;;;;;;;;7353279;19;20301;-80
2023/03/11 10:53:03;;;;;;;10.50;1.80;;;;;;;;;;7358101;19;20238;-80
2023/03/11 10:55:29;;;;;;;7.20;1.77;;;;;;;;;;7353823;19;20007;-82
2023/03/11 10:58:03;;;;;;;19.20;2.33;;;;;;;;;;7362462;19;20396;-80
2023/03/11 11:00:29;;;;;;;8.77;1.77;;;;;;;;;;7356915;19;20298;-80
2023/03/11 11:02:58;;;;;;;9.55;1.50;;;;;;;;;;7350735;19;20472;-80
2023/03/11 11:05:28;;;;;;;5.80;1.95;;;;;;;;;;7354562;19;20031;-80
2023/03/11 11:08:02;;;;;;;10.65;1.73;;;;;;;;;;7354045;19;20010;-80
2023/03/11 11:10:28;;;;;;;14.35;1.95;;;;;;;;;;7363847;19;20021;-80
2023/03/11 11:12:55;;;;;;;6.95;1.70;;;;;;;;;;7360429;19;20007;-80
2023/03/11 11:15:21;;;;;;;14.13;2.00;;;;;;;;;;7356404;19;20006;-80
2023/03/11 11:17:46;;;;;;;8.80;2.00;;;;;;;;;;7353478;19;20014;-80
2023/03/11 11:20:16;;;;;;;9.93;1.97;;;;;;;;;;7357731;19;20011;-81
2023/03/11 11:22:47;;;;;;;9.23;1.58;;;;;;;;;;7358377;19;20280;-80
2023/03/11 11:25:29;;;;;;;8.15;1.67;;;;;;;;;;7371713;19;20566;-80
2023/03/11 11:27:56;;;;;;;8.55;1.63;;;;;;;;;;7369367;19;20018;-80
2023/03/11 11:30:22;;;;;;;5.97;1.50;;;;;;;;;;7365337;19;20082;-81
2023/03/11 11:32:47;;;;;;;7.47;2.08;;;;;;;;;;7355078;19;21079;-80
2023/03/11 11:35:14;;;;;;;7.00;1.25;;;;;;;;;;7351527;19;20014;-80
2023/03/11 11:37:41;;;;;;;3.72;0.98;;;;;;;;;;7359956;19;20003;-80
2023/03/11 11:40:15;;;;;;;9.60;2.30;;;;;;;;;;7367051;19;20039;-80
2023/03/11 11:42:45;;;;;;;11.45;1.38;;;;;;;;;;7349406;19;20003;-80
2023/03/11 11:45:29;;;;;;;10.18;1.48;;;;;;;;;;7356522;19;20130;-81
2023/03/11 11:47:56;;;;;;;5.43;1.38;;;;;;;;;;7364795;19;20031;-80
2023/03/11 11:50:25;;;;;;;11.13;1.70;;;;;;;;;;7360283;19;20013;-80
2023/03/11 11:52:54;;;;;;;10.43;1.55;;;;;;;;;;7356410;19;20023;-80
2023/03/11 11:55:19;;;;;;;6.50;1.30;;;;;;;;;;7372744;19;20014;-80
2023/03/11 11:57:45;;;;;;;5.47;1.88;;;;;;;;;;7358848;19;20035;-82
2023/03/11 12:00:19;;;;;;;6.15;2.30;;;;;;;;;;7368682;19;20469;-80
2023/03/11 12:02:44;;;;;;;;;;;;;;;;;;7362222;19;20085;-80
2023/03/11 12:05:15;;;;;;;6.35;1.40;;;;;;;;;;7354568;19;19995;-80
2023/03/11 12:08:01;;;;;;;6.43;1.77;;;;;;;;;;7357982;19;20622;-80
2023/03/11 12:10:35;;;;;;;11.43;2.00;;;;;;;;;;7362211;19;20015;-80
2023/03/11 12:13:09;;;;;;;5.95;1.60;;;;;;;;;;7361841;19;20011;-80
2023/03/11 12:15:38;;;;;;;4.90;1.35;;;;;;;;;;7350331;19;20083;-81
2023/03/11 12:18:05;;;;;;;9.20;1.85;;;;;;;;;;7363746;19;20622;-81
2023/03/11 12:20:39;;;;;;;11.90;3.28;;;;;;;;;;7366550;19;20018;-81
2023/03/11 12:23:16;;;;;;;5.43;1.60;;;;;;;;;;7363897;19;21096;-80
2023/03/11 12:25:50;;;;;;;7.60;1.92;;;;;;;;;;7356299;19;20018;-81
2023/03/11 12:28:34;;;;;;;9.48;1.80;;;;;;;;;;7364390;19;20011;-80
2023/03/11 12:31:00;;;;;;;5.88;1.58;;;;;;;;;;7355803;19;21788;-84
2023/03/11 12:33:35;;;;;;;8.85;1.65;;;;;;;;;;7342593;19;20051;-81
2023/03/11 12:36:01;;;;;;;9.88;2.25;;;;;;;;;;7363752;19;20525;-81
2023/03/11 12:38:26;;;;;;;10.10;2.10;;;;;;;;;;7367546;19;20325;-81
2023/03/11 12:40:58;;;;;;;6.60;1.83;;;;;;;;;;7361369;19;20456;-81
2023/03/11 12:43:29;;;;;;;9.23;2.00;;;;;;;;;;7363646;19;20294;-82
2023/03/11 12:45:58;;;;;;;9.70;1.65;;;;;;;;;;7347315;19;20312;-82
2023/03/11 12:48:23;;;;;;;8.57;1.85;;;;;;;;;;7360243;19;20022;-81
2023/03/11 12:50:48;;;;;;;7.65;1.83;;;;;;;;;;7356412;19;20134;-82
2023/03/11 12:53:15;;;;;;;9.85;1.80;;;;;;;;;;7351139;19;20002;-82
2023/03/11 12:56:00;;;;;;;9.13;2.47;;;;;;;;;;7345021;19;20374;-81
2023/03/11 12:58:42;;;;;;;9.07;1.67;;;;;;;;;;7336560;19;20035;-81
2023/03/11 13:58:27;;;;;;;6.35;2.40;;;;;;;;;;7211156;19;23122;-84
2023/03/11 14:00:56;;;;;;;10.95;2.80;;;;;;;;;;7285200;19;20085;-82
2023/03/11 14:03:24;;;;;;;11.98;3.63;;;;;;;;;;7356037;19;20533;-82
2023/03/11 14:05:55;;;;;;;7.32;2.55;;;;;;;;;;7337809;19;19999;-83
2023/03/11 14:08:20;;;;;;;8.10;2.10;;;;;;;;;;7359663;19;20432;-83
2023/03/11 14:10:55;;;;;;;9.13;2.20;;;;;;;;;;7366599;19;20024;-82
2023/03/11 14:13:21;;;;;;;7.72;2.10;;;;;;;;;;7348547;19;20359;-82
2023/03/11 14:16:04;;;;;;;8.43;2.70;;;;;;;;;;7333702;19;20689;-82
2023/03/11 14:18:31;;;;;;;11.73;2.60;;;;;;;;;;7337857;19;20010;-82
2023/03/11 14:20:56;;;;;;;7.53;2.33;;;;;;;;;;7362076;19;20132;-81
2023/03/11 14:23:24;;;;;;;8.13;2.17;;;;;;;;;;7358522;19;20002;-81
2023/03/11 14:25:56;;;;;;;7.95;2.20;;;;;;;;;;7355283;19;20007;-81
2023/03/11 14:28:21;;;;;;;7.85;2.22;;;;;;;;;;7316253;19;20010;-84
2023/03/11 14:30:57;;;;;;;7.60;1.98;;;;;;;;;;7330388;19;20006;-81
2023/03/11 14:33:22;;;;;;;6.22;2.13;;;;;;;;;;7341382;19;20892;-83
2023/03/11 14:35:52;;;;;;;14.00;2.60;;;;;;;;;;7342265;19;20014;-81
2023/03/11 14:38:22;;;;;;;7.88;2.28;;;;;;;;;;7332142;19;20028;-81
2023/03/11 14:40:55;;;;;;;8.48;2.67;;;;;;;;;;7347861;19;20798;-82
2023/03/11 14:43:20;;;;;;;10.77;2.20;;;;;;;;;;7346957;19;20017;-82
2023/03/11 14:45:46;;;;;;;12.75;2.45;;;;;;;;;;7352613;19;20019;-82
2023/03/11 14:48:18;;;;;;;7.97;2.10;;;;;;;;;;7345723;19;21031;-82
2023/03/11 14:50:48;;;;;;;6.00;2.13;;;;;;;;;;7332878;19;20006;-82
2023/03/11 14:53:19;;;;;;;6.80;2.00;;;;;;;;;;7343520;19;21492;-83
2023/03/11 14:55:53;;;;;;;8.63;2.20;;;;;;;;;;7354972;19;20014;-83
2023/03/11 14:58:44;;;;;;;7.85;2.10;;;;;;;;;;7346163;19;20011;-83
2023/03/11 15:01:17;;;;;;;10.30;2.40;;;;;;;;;;7339129;19;20011;-82
2023/03/11 15:03:45;;;;;;;7.90;1.80;;;;;;;;;;7351020;19;20458;-83
2023/03/11 15:06:13;;;;;;;11.95;2.47;;;;;;;;;;7337120;19;20096;-82
2023/03/11 15:08:44;;;;;;;8.68;1.98;;;;;;;;;;7337760;19;20010;-82
2023/03/11 15:11:09;;;;;;;8.25;1.70;;;;;;;;;;7316708;19;20015;-83
2023/03/11 15:13:35;;;;;;;9.70;2.13;;;;;;;;;;7335202;19;20007;-82
2023/03/11 15:16:02;;;;;;;10.38;2.90;;;;;;;;;;7341231;19;20011;-82
2023/03/11 15:18:32;;;;;;;7.22;1.92;;;;;;;;;;7337052;19;20124;-83
2023/03/11 15:21:05;;;;;;;9.00;2.05;;;;;;;;;;7342865;19;20007;-83
2023/03/11 15:23:31;;;;;;;10.00;2.50;;;;;;;;;;7356768;19;20006;-82
2023/03/11 15:25:57;;;;;;;10.15;1.90;;;;;;;;;;7343946;19;20046;-83
2023/03/11 15:28:29;;;;;;;7.30;2.03;;;;;;;;;;7349856;19;20065;-82